sensor_id;sensor_type;location;lat;lon;timestamp;P1;durP1;ratioP1;P2;durP2;ratioP2
4754;SDS011;2391;47.212;7.542;2023-05-08T00:01:53;0.67;;;0.67;;
4754;SDS011;2391;47.212;7.542;2023-05-08T00:04:19;0.70;;;0.70;;
4754;SDS011;2391;47.212;7.542;2023-05-08T00:06:48;0.90;;;0.90;;
4754;SDS011;2391;47.212;7.542;2023-05-08T00:09:15;2.00;;;0.90;;
4754;SDS011;2391;47.212;7.542;2023-05-08T00:11:41;0.77;;;0.77;;
4754;SDS011;2391;47.212;7.542;2023-05-08T00:14:07;5.20;;;1.00;;
4754;SDS011;2391;47.212;7.542;2023-05-08T00:16:33;1.40;;;0.80;;
4754;SDS011;2391;47.212;7.542;2023-05-08T00:18:59;0.90;;;0.90;;
4754;SDS011;2391;47.212;7.542;2023-05-08T00:21:25;0.90;;;0.90;;
4754;SDS011;2391;47.212;7.542;2023-05-08T00:23:51;1.20;;;0.97;;
4754;SDS011;2391;47.212;7.542;2023-05-08T00:26:17;0.90;;;0.90;;
4754;SDS011;2391;47.212;7.542;2023-05-08T00:28:42;1.00;;;1.00;;
4754;SDS011;2391;47.212;7.542;2023-05-08T00:31:09;1.00;;;0.90;;
4754;SDS011;2391;47.212;7.542;2023-05-08T00:33:34;1.03;;;0.90;;
4754;SDS011;2391;47.212;7.542;2023-05-08T00:36:00;0.80;;;0.70;;
4754;SDS011;2391;47.212;7.542;2023-05-08T00:38:31;0.83;;;0.83;;
4754;SDS011;2391;47.212;7.542;2023-05-08T00:40:58;1.37;;;0.97;;
4754;SDS011;2391;47.212;7.542;2023-05-08T00:43:24;1.07;;;0.90;;
4754;SDS011;2391;47.212;7.542;2023-05-08T00:45:53;0.93;;;0.93;;
4754;SDS011;2391;47.212;7.542;2023-05-08T00:48:20;0.80;;;0.80;;
4754;SDS011;2391;47.212;7.542;2023-05-08T00:50:50;1.00;;;1.00;;
4754;SDS011;2391;47.212;7.542;2023-05-08T00:53:18;1.10;;;1.10;;
4754;SDS011;2391;47.212;7.542;2023-05-08T00:55:47;1.53;;;0.90;;
4754;SDS011;2391;47.212;7.542;2023-05-08T00:58:15;2.63;;;1.27;;
4754;SDS011;2391;47.212;7.542;2023-05-08T01:00:41;1.53;;;1.30;;
4754;SDS011;2391;47.212;7.542;2023-05-08T01:03:09;1.30;;;1.30;;
4754;SDS011;2391;47.212;7.542;2023-05-08T01:05:35;1.10;;;1.10;;
4754;SDS011;2391;47.212;7.542;2023-05-08T01:08:02;1.73;;;1.10;;
4754;SDS011;2391;47.212;7.542;2023-05-08T01:10:31;2.63;;;1.10;;
4754;SDS011;2391;47.212;7.542;2023-05-08T01:16:13;3.03;;;1.30;;
4754;SDS011;2391;47.212;7.542;2023-05-08T01:18:46;1.97;;;1.20;;
4754;SDS011;2391;47.212;7.542;2023-05-08T01:21:59;1.73;;;1.07;;
4754;SDS011;2391;47.212;7.542;2023-05-08T01:29:23;1.27;;;1.10;;
4754;SDS011;2391;47.212;7.542;2023-05-08T01:34:34;1.00;;;1.00;;
4754;SDS011;2391;47.212;7.542;2023-05-08T01:37:04;1.13;;;1.13;;
4754;SDS011;2391;47.212;7.542;2023-05-08T01:39:43;5.80;;;1.20;;
4754;SDS011;2391;47.212;7.542;2023-05-08T01:42:21;1.80;;;1.07;;
4754;SDS011;2391;47.212;7.542;2023-05-08T01:45:00;6.43;;;1.23;;
4754;SDS011;2391;47.212;7.542;2023-05-08T01:47:29;2.23;;;1.00;;
4754;SDS011;2391;47.212;7.542;2023-05-08T01:50:10;1.40;;;1.00;;
4754;SDS011;2391;47.212;7.542;2023-05-08T01:52:47;4.10;;;1.00;;
4754;SDS011;2391;47.212;7.542;2023-05-08T01:55:15;0.97;;;0.97;;
4754;SDS011;2391;47.212;7.542;2023-05-08T01:57:48;1.17;;;1.00;;
4754;SDS011;2391;47.212;7.542;2023-05-08T02:00:18;0.80;;;0.80;;
4754;SDS011;2391;47.212;7.542;2023-05-08T02:02:47;1.37;;;1.27;;
4754;SDS011;2391;47.212;7.542;2023-05-08T02:05:15;1.50;;;1.40;;
4754;SDS011;2391;47.212;7.542;2023-05-08T02:07:43;3.53;;;0.93;;
4754;SDS011;2391;47.212;7.542;2023-05-08T02:10:12;0.90;;;0.90;;
4754;SDS011;2391;47.212;7.542;2023-05-08T02:12:39;1.90;;;0.90;;
4754;SDS011;2391;47.212;7.542;2023-05-08T02:15:07;1.13;;;1.10;;
4754;SDS011;2391;47.212;7.542;2023-05-08T02:17:35;1.10;;;1.10;;
4754;SDS011;2391;47.212;7.542;2023-05-08T02:20:04;6.80;;;0.83;;
4754;SDS011;2391;47.212;7.542;2023-05-08T02:22:32;1.10;;;1.00;;
4754;SDS011;2391;47.212;7.542;2023-05-08T02:24:59;1.20;;;1.10;;
4754;SDS011;2391;47.212;7.542;2023-05-08T02:27:26;1.83;;;1.03;;
4754;SDS011;2391;47.212;7.542;2023-05-08T02:29:53;1.20;;;1.00;;
4754;SDS011;2391;47.212;7.542;2023-05-08T02:32:21;2.80;;;0.90;;
4754;SDS011;2391;47.212;7.542;2023-05-08T02:34:49;2.40;;;1.10;;
4754;SDS011;2391;47.212;7.542;2023-05-08T02:37:19;2.67;;;0.90;;
4754;SDS011;2391;47.212;7.542;2023-05-08T02:39:46;1.17;;;1.03;;
4754;SDS011;2391;47.212;7.542;2023-05-08T02:42:12;1.00;;;1.00;;
4754;SDS011;2391;47.212;7.542;2023-05-08T02:44:39;0.90;;;0.90;;
4754;SDS011;2391;47.212;7.542;2023-05-08T02:47:17;1.17;;;1.10;;
4754;SDS011;2391;47.212;7.542;2023-05-08T02:49:53;0.90;;;0.90;;
4754;SDS011;2391;47.212;7.542;2023-05-08T02:52:24;1.33;;;1.10;;
4754;SDS011;2391;47.212;7.542;2023-05-08T02:55:38;0.90;;;0.90;;
4754;SDS011;2391;47.212;7.542;2023-05-08T03:00:14;3.20;;;0.90;;
4754;SDS011;2391;47.212;7.542;2023-05-08T03:02:51;1.37;;;1.03;;
4754;SDS011;2391;47.212;7.542;2023-05-08T03:05:22;1.03;;;1.03;;
4754;SDS011;2391;47.212;7.542;2023-05-08T03:07:53;1.10;;;1.00;;
4754;SDS011;2391;47.212;7.542;2023-05-08T03:10:20;2.20;;;1.00;;
4754;SDS011;2391;47.212;7.542;2023-05-08T03:12:50;1.67;;;1.03;;
4754;SDS011;2391;47.212;7.542;2023-05-08T03:15:32;1.93;;;1.00;;
4754;SDS011;2391;47.212;7.542;2023-05-08T03:18:06;1.10;;;1.00;;
4754;SDS011;2391;47.212;7.542;2023-05-08T03:20:34;2.30;;;0.87;;
4754;SDS011;2391;47.212;7.542;2023-05-08T03:23:02;1.20;;;1.10;;
4754;SDS011;2391;47.212;7.542;2023-05-08T03:25:30;1.30;;;1.20;;
4754;SDS011;2391;47.212;7.542;2023-05-08T03:27:58;1.30;;;1.20;;
4754;SDS011;2391;47.212;7.542;2023-05-08T03:30:25;4.07;;;1.17;;
4754;SDS011;2391;47.212;7.542;2023-05-08T03:32:53;1.30;;;1.20;;
4754;SDS011;2391;47.212;7.542;2023-05-08T03:35:21;3.07;;;1.00;;
4754;SDS011;2391;47.212;7.542;2023-05-08T03:37:47;1.90;;;1.20;;
4754;SDS011;2391;47.212;7.542;2023-05-08T03:40:15;1.67;;;1.57;;
4754;SDS011;2391;47.212;7.542;2023-05-08T03:42:41;1.10;;;1.10;;
4754;SDS011;2391;47.212;7.542;2023-05-08T03:45:08;1.50;;;1.40;;
4754;SDS011;2391;47.212;7.542;2023-05-08T03:47:35;1.63;;;1.53;;
4754;SDS011;2391;47.212;7.542;2023-05-08T03:50:01;1.10;;;1.10;;
4754;SDS011;2391;47.212;7.542;2023-05-08T03:52:27;1.93;;;1.20;;
4754;SDS011;2391;47.212;7.542;2023-05-08T03:54:54;1.40;;;1.30;;
4754;SDS011;2391;47.212;7.542;2023-05-08T03:57:20;3.20;;;1.40;;
4754;SDS011;2391;47.212;7.542;2023-05-08T04:00:05;1.10;;;1.00;;
4754;SDS011;2391;47.212;7.542;2023-05-08T04:02:43;1.37;;;1.27;;
4754;SDS011;2391;47.212;7.542;2023-05-08T04:05:20;4.60;;;1.30;;
4754;SDS011;2391;47.212;7.542;2023-05-08T04:10:49;1.43;;;1.33;;
4754;SDS011;2391;47.212;7.542;2023-05-08T04:13:27;1.23;;;1.13;;
4754;SDS011;2391;47.212;7.542;2023-05-08T04:16:06;1.17;;;1.17;;
4754;SDS011;2391;47.212;7.542;2023-05-08T04:18:35;0.90;;;0.90;;
4754;SDS011;2391;47.212;7.542;2023-05-08T04:21:05;2.23;;;1.30;;
4754;SDS011;2391;47.212;7.542;2023-05-08T04:23:32;0.90;;;0.90;;
4754;SDS011;2391;47.212;7.542;2023-05-08T04:26:00;3.92;;;1.10;;
4754;SDS011;2391;47.212;7.542;2023-05-08T04:28:28;1.40;;;1.30;;
4754;SDS011;2391;47.212;7.542;2023-05-08T04:30:55;3.03;;;1.00;;
4754;SDS011;2391;47.212;7.542;2023-05-08T04:33:21;3.37;;;1.33;;
4754;SDS011;2391;47.212;7.542;2023-05-08T04:35:59;1.30;;;1.20;;
4754;SDS011;2391;47.212;7.542;2023-05-08T04:38:35;3.37;;;1.23;;
4754;SDS011;2391;47.212;7.542;2023-05-08T04:41:00;1.33;;;1.23;;
4754;SDS011;2391;47.212;7.542;2023-05-08T04:43:26;1.30;;;1.20;;
4754;SDS011;2391;47.212;7.542;2023-05-08T04:45:52;1.30;;;1.30;;
4754;SDS011;2391;47.212;7.542;2023-05-08T04:48:18;3.67;;;1.40;;
4754;SDS011;2391;47.212;7.542;2023-05-08T04:50:44;4.30;;;1.30;;
4754;SDS011;2391;47.212;7.542;2023-05-08T04:53:09;1.33;;;1.10;;
4754;SDS011;2391;47.212;7.542;2023-05-08T04:55:35;2.40;;;1.40;;
4754;SDS011;2391;47.212;7.542;2023-05-08T04:58:01;2.20;;;1.20;;
4754;SDS011;2391;47.212;7.542;2023-05-08T05:00:33;1.90;;;1.10;;
4754;SDS011;2391;47.212;7.542;2023-05-08T05:02:59;1.47;;;1.00;;
4754;SDS011;2391;47.212;7.542;2023-05-08T05:05:24;1.27;;;1.03;;
4754;SDS011;2391;47.212;7.542;2023-05-08T05:07:50;4.30;;;1.50;;
4754;SDS011;2391;47.212;7.542;2023-05-08T05:10:16;3.33;;;1.07;;
4754;SDS011;2391;47.212;7.542;2023-05-08T05:12:42;1.47;;;1.07;;
4754;SDS011;2391;47.212;7.542;2023-05-08T05:15:08;1.33;;;0.93;;
4754;SDS011;2391;47.212;7.542;2023-05-08T05:17:34;1.20;;;1.10;;
4754;SDS011;2391;47.212;7.542;2023-05-08T05:20:00;1.17;;;1.00;;
4754;SDS011;2391;47.212;7.542;2023-05-08T05:22:26;4.00;;;1.20;;
4754;SDS011;2391;47.212;7.542;2023-05-08T05:24:53;2.83;;;1.00;;
4754;SDS011;2391;47.212;7.542;2023-05-08T05:27:18;1.63;;;0.90;;
4754;SDS011;2391;47.212;7.542;2023-05-08T05:29:44;1.93;;;1.03;;
4754;SDS011;2391;47.212;7.542;2023-05-08T05:32:10;2.40;;;1.10;;
4754;SDS011;2391;47.212;7.542;2023-05-08T05:34:36;4.20;;;2.17;;
4754;SDS011;2391;47.212;7.542;2023-05-08T05:37:02;1.03;;;1.00;;
4754;SDS011;2391;47.212;7.542;2023-05-08T05:39:27;0.90;;;0.90;;
4754;SDS011;2391;47.212;7.542;2023-05-08T05:41:53;2.70;;;1.40;;
4754;SDS011;2391;47.212;7.542;2023-05-08T05:44:19;1.77;;;1.30;;
4754;SDS011;2391;47.212;7.542;2023-05-08T05:46:44;2.10;;;1.40;;
4754;SDS011;2391;47.212;7.542;2023-05-08T05:49:10;1.60;;;1.50;;
4754;SDS011;2391;47.212;7.542;2023-05-08T05:51:36;1.57;;;0.97;;
4754;SDS011;2391;47.212;7.542;2023-05-08T05:54:02;3.00;;;1.20;;
4754;SDS011;2391;47.212;7.542;2023-05-08T05:56:28;0.83;;;0.83;;
4754;SDS011;2391;47.212;7.542;2023-05-08T05:58:57;0.90;;;0.90;;
4754;SDS011;2391;47.212;7.542;2023-05-08T06:01:22;1.50;;;0.90;;
4754;SDS011;2391;47.212;7.542;2023-05-08T06:03:53;0.90;;;0.90;;
4754;SDS011;2391;47.212;7.542;2023-05-08T06:06:19;0.90;;;0.90;;
4754;SDS011;2391;47.212;7.542;2023-05-08T06:08:45;1.00;;;1.00;;
4754;SDS011;2391;47.212;7.542;2023-05-08T06:11:11;1.20;;;1.00;;
4754;SDS011;2391;47.212;7.542;2023-05-08T06:13:40;1.40;;;0.90;;
4754;SDS011;2391;47.212;7.542;2023-05-08T06:16:06;1.20;;;1.17;;
4754;SDS011;2391;47.212;7.542;2023-05-08T06:18:32;1.10;;;1.00;;
4754;SDS011;2391;47.212;7.542;2023-05-08T06:20:58;0.80;;;0.80;;
4754;SDS011;2391;47.212;7.542;2023-05-08T06:23:24;2.97;;;0.93;;
4754;SDS011;2391;47.212;7.542;2023-05-08T06:25:51;2.00;;;0.80;;
4754;SDS011;2391;47.212;7.542;2023-05-08T06:28:18;4.50;;;0.80;;
4754;SDS011;2391;47.212;7.542;2023-05-08T06:30:44;1.00;;;0.90;;
4754;SDS011;2391;47.212;7.542;2023-05-08T06:33:10;3.77;;;1.10;;
4754;SDS011;2391;47.212;7.542;2023-05-08T06:35:35;1.00;;;1.00;;
4754;SDS011;2391;47.212;7.542;2023-05-08T06:38:01;2.00;;;1.00;;
4754;SDS011;2391;47.212;7.542;2023-05-08T06:40:27;1.67;;;1.30;;
4754;SDS011;2391;47.212;7.542;2023-05-08T06:42:53;3.23;;;1.00;;
4754;SDS011;2391;47.212;7.542;2023-05-08T06:45:18;1.23;;;0.90;;
4754;SDS011;2391;47.212;7.542;2023-05-08T06:47:44;1.00;;;1.00;;
4754;SDS011;2391;47.212;7.542;2023-05-08T06:50:10;1.83;;;0.87;;
4754;SDS011;2391;47.212;7.542;2023-05-08T06:52:36;0.93;;;0.83;;
4754;SDS011;2391;47.212;7.542;2023-05-08T06:55:02;1.37;;;1.00;;
4754;SDS011;2391;47.212;7.542;2023-05-08T06:57:28;0.70;;;0.70;;
4754;SDS011;2391;47.212;7.542;2023-05-08T06:59:55;1.93;;;1.83;;
4754;SDS011;2391;47.212;7.542;2023-05-08T07:02:21;0.80;;;0.80;;
4754;SDS011;2391;47.212;7.542;2023-05-08T07:04:47;2.67;;;0.90;;
4754;SDS011;2391;47.212;7.542;2023-05-08T07:07:13;1.53;;;0.97;;
4754;SDS011;2391;47.212;7.542;2023-05-08T07:09:39;1.07;;;0.97;;
4754;SDS011;2391;47.212;7.542;2023-05-08T07:12:05;0.70;;;0.70;;
4754;SDS011;2391;47.212;7.542;2023-05-08T07:14:33;0.70;;;0.70;;
4754;SDS011;2391;47.212;7.542;2023-05-08T07:17:01;0.80;;;0.70;;
4754;SDS011;2391;47.212;7.542;2023-05-08T07:19:29;0.93;;;0.80;;
4754;SDS011;2391;47.212;7.542;2023-05-08T07:21:56;0.90;;;0.90;;
4754;SDS011;2391;47.212;7.542;2023-05-08T07:24:21;0.90;;;0.70;;
4754;SDS011;2391;47.212;7.542;2023-05-08T07:26:49;0.80;;;0.80;;
4754;SDS011;2391;47.212;7.542;2023-05-08T07:29:16;1.10;;;0.70;;
4754;SDS011;2391;47.212;7.542;2023-05-08T07:31:41;0.80;;;0.80;;
4754;SDS011;2391;47.212;7.542;2023-05-08T07:34:07;1.53;;;0.90;;
4754;SDS011;2391;47.212;7.542;2023-05-08T07:36:33;1.80;;;0.87;;
4754;SDS011;2391;47.212;7.542;2023-05-08T07:39:07;1.10;;;0.80;;
4754;SDS011;2391;47.212;7.542;2023-05-08T07:41:33;1.10;;;0.80;;
4754;SDS011;2391;47.212;7.542;2023-05-08T07:44:01;8.73;;;1.10;;
4754;SDS011;2391;47.212;7.542;2023-05-08T07:46:27;1.10;;;0.73;;
4754;SDS011;2391;47.212;7.542;2023-05-08T07:48:53;0.70;;;0.70;;
4754;SDS011;2391;47.212;7.542;2023-05-08T07:51:19;0.73;;;0.73;;
4754;SDS011;2391;47.212;7.542;2023-05-08T07:53:44;1.70;;;0.70;;
4754;SDS011;2391;47.212;7.542;2023-05-08T07:56:12;4.90;;;1.53;;
4754;SDS011;2391;47.212;7.542;2023-05-08T07:58:38;2.00;;;0.63;;
4754;SDS011;2391;47.212;7.542;2023-05-08T08:01:04;0.73;;;0.73;;
4754;SDS011;2391;47.212;7.542;2023-05-08T08:03:30;2.00;;;0.77;;
4754;SDS011;2391;47.212;7.542;2023-05-08T08:05:56;1.77;;;0.80;;
4754;SDS011;2391;47.212;7.542;2023-05-08T08:08:22;3.43;;;0.90;;
4754;SDS011;2391;47.212;7.542;2023-05-08T08:10:48;1.20;;;0.80;;
4754;SDS011;2391;47.212;7.542;2023-05-08T08:13:14;0.93;;;0.80;;
4754;SDS011;2391;47.212;7.542;2023-05-08T08:15:42;0.70;;;0.70;;
4754;SDS011;2391;47.212;7.542;2023-05-08T08:18:07;2.30;;;0.83;;
4754;SDS011;2391;47.212;7.542;2023-05-08T08:20:33;1.37;;;0.87;;
4754;SDS011;2391;47.212;7.542;2023-05-08T08:22:59;2.50;;;0.90;;
4754;SDS011;2391;47.212;7.542;2023-05-08T08:25:25;0.80;;;0.80;;
4754;SDS011;2391;47.212;7.542;2023-05-08T08:27:53;2.17;;;0.90;;
4754;SDS011;2391;47.212;7.542;2023-05-08T08:30:18;1.23;;;0.80;;
4754;SDS011;2391;47.212;7.542;2023-05-08T08:32:44;3.97;;;0.80;;
4754;SDS011;2391;47.212;7.542;2023-05-08T08:35:10;0.70;;;0.70;;
4754;SDS011;2391;47.212;7.542;2023-05-08T08:37:36;1.87;;;0.87;;
4754;SDS011;2391;47.212;7.542;2023-05-08T08:40:03;1.87;;;1.03;;
4754;SDS011;2391;47.212;7.542;2023-05-08T08:42:29;1.27;;;0.90;;
4754;SDS011;2391;47.212;7.542;2023-05-08T08:44:56;1.10;;;1.00;;
4754;SDS011;2391;47.212;7.542;2023-05-08T08:47:21;1.17;;;1.00;;
4754;SDS011;2391;47.212;7.542;2023-05-08T08:49:51;1.10;;;1.00;;
4754;SDS011;2391;47.212;7.542;2023-05-08T08:55:18;5.70;;;1.10;;
4754;SDS011;2391;47.212;7.542;2023-05-08T08:58:03;1.17;;;1.07;;
4754;SDS011;2391;47.212;7.542;2023-05-08T09:00:27;1.03;;;0.93;;
4754;SDS011;2391;47.212;7.542;2023-05-08T09:02:56;4.03;;;1.37;;
4754;SDS011;2391;47.212;7.542;2023-05-08T09:05:22;2.40;;;1.20;;
4754;SDS011;2391;47.212;7.542;2023-05-08T09:07:50;1.30;;;1.20;;
4754;SDS011;2391;47.212;7.542;2023-05-08T09:10:18;2.20;;;1.33;;
4754;SDS011;2391;47.212;7.542;2023-05-08T09:12:46;1.40;;;1.30;;
4754;SDS011;2391;47.212;7.542;2023-05-08T09:15:14;4.60;;;1.20;;
4754;SDS011;2391;47.212;7.542;2023-05-08T09:17:40;2.97;;;1.20;;
4754;SDS011;2391;47.212;7.542;2023-05-08T09:20:06;1.50;;;1.40;;
4754;SDS011;2391;47.212;7.542;2023-05-08T09:22:34;4.30;;;1.30;;
4754;SDS011;2391;47.212;7.542;2023-05-08T09:25:01;4.43;;;1.87;;
4754;SDS011;2391;47.212;7.542;2023-05-08T09:27:28;3.53;;;1.80;;
4754;SDS011;2391;47.212;7.542;2023-05-08T09:30:02;5.77;;;1.63;;
4754;SDS011;2391;47.212;7.542;2023-05-08T09:32:30;4.53;;;2.30;;
4754;SDS011;2391;47.212;7.542;2023-05-08T09:34:57;2.30;;;2.20;;
4754;SDS011;2391;47.212;7.542;2023-05-08T09:37:24;3.07;;;2.87;;
4754;SDS011;2391;47.212;7.542;2023-05-08T09:39:51;3.33;;;2.23;;
4754;SDS011;2391;47.212;7.542;2023-05-08T09:42:17;5.17;;;2.47;;
4754;SDS011;2391;47.212;7.542;2023-05-08T09:44:51;2.53;;;2.43;;
4754;SDS011;2391;47.212;7.542;2023-05-08T09:52:34;2.30;;;2.20;;
4754;SDS011;2391;47.212;7.542;2023-05-08T09:55:03;2.20;;;2.10;;
4754;SDS011;2391;47.212;7.542;2023-05-08T09:57:34;4.50;;;2.63;;
4754;SDS011;2391;47.212;7.542;2023-05-08T10:00:07;8.50;;;2.77;;
4754;SDS011;2391;47.212;7.542;2023-05-08T10:02:35;2.57;;;2.37;;
4754;SDS011;2391;47.212;7.542;2023-05-08T10:05:02;3.40;;;2.73;;
4754;SDS011;2391;47.212;7.542;2023-05-08T10:07:33;2.60;;;2.50;;
4754;SDS011;2391;47.212;7.542;2023-05-08T10:10:02;2.60;;;2.40;;
4754;SDS011;2391;47.212;7.542;2023-05-08T10:12:30;5.70;;;2.43;;
4754;SDS011;2391;47.212;7.542;2023-05-08T10:14:56;2.97;;;2.87;;
4754;SDS011;2391;47.212;7.542;2023-05-08T10:17:27;4.17;;;2.77;;
4754;SDS011;2391;47.212;7.542;2023-05-08T10:20:05;3.13;;;2.57;;
4754;SDS011;2391;47.212;7.542;2023-05-08T10:22:34;3.87;;;3.47;;
4754;SDS011;2391;47.212;7.542;2023-05-08T10:25:06;3.20;;;3.00;;
4754;SDS011;2391;47.212;7.542;2023-05-08T10:27:37;3.17;;;2.93;;
4754;SDS011;2391;47.212;7.542;2023-05-08T10:30:23;2.77;;;2.63;;
4754;SDS011;2391;47.212;7.542;2023-05-08T10:32:50;2.90;;;2.70;;
4754;SDS011;2391;47.212;7.542;2023-05-08T10:35:20;3.20;;;3.00;;
4754;SDS011;2391;47.212;7.542;2023-05-08T10:37:47;6.17;;;2.63;;
4754;SDS011;2391;47.212;7.542;2023-05-08T10:40:20;5.53;;;2.90;;
4754;SDS011;2391;47.212;7.542;2023-05-08T10:42:47;2.47;;;2.37;;
4754;SDS011;2391;47.212;7.542;2023-05-08T10:45:14;3.50;;;3.30;;
4754;SDS011;2391;47.212;7.542;2023-05-08T10:47:44;3.00;;;2.70;;
4754;SDS011;2391;47.212;7.542;2023-05-08T10:53:04;3.40;;;3.20;;
4754;SDS011;2391;47.212;7.542;2023-05-08T10:55:36;3.10;;;2.80;;
4754;SDS011;2391;47.212;7.542;2023-05-08T10:58:08;2.90;;;2.70;;
4754;SDS011;2391;47.212;7.542;2023-05-08T11:03:25;5.87;;;2.63;;
4754;SDS011;2391;47.212;7.542;2023-05-08T11:05:52;2.50;;;2.40;;
4754;SDS011;2391;47.212;7.542;2023-05-08T11:08:21;3.37;;;3.17;;
4754;SDS011;2391;47.212;7.542;2023-05-08T11:10:59;5.07;;;3.37;;
4754;SDS011;2391;47.212;7.542;2023-05-08T11:13:24;2.77;;;2.67;;
4754;SDS011;2391;47.212;7.542;2023-05-08T11:15:57;2.80;;;2.70;;
4754;SDS011;2391;47.212;7.542;2023-05-08T11:18:22;2.90;;;2.70;;
4754;SDS011;2391;47.212;7.542;2023-05-08T11:23:31;2.83;;;2.20;;
4754;SDS011;2391;47.212;7.542;2023-05-08T11:28:30;3.10;;;2.60;;
4754;SDS011;2391;47.212;7.542;2023-05-08T11:31:04;2.87;;;2.60;;
4754;SDS011;2391;47.212;7.542;2023-05-08T11:33:32;2.33;;;2.23;;
4754;SDS011;2391;47.212;7.542;2023-05-08T11:36:11;3.40;;;3.10;;
4754;SDS011;2391;47.212;7.542;2023-05-08T11:38:38;4.60;;;3.27;;
4754;SDS011;2391;47.212;7.542;2023-05-08T11:41:06;3.10;;;3.00;;
4754;SDS011;2391;47.212;7.542;2023-05-08T11:46:21;2.97;;;2.30;;
4754;SDS011;2391;47.212;7.542;2023-05-08T11:48:47;2.10;;;2.00;;
4754;SDS011;2391;47.212;7.542;2023-05-08T11:51:15;5.23;;;1.77;;
4754;SDS011;2391;47.212;7.542;2023-05-08T11:53:43;2.57;;;1.50;;
4754;SDS011;2391;47.212;7.542;2023-05-08T11:56:10;3.10;;;1.67;;
4754;SDS011;2391;47.212;7.542;2023-05-08T11:58:35;4.63;;;1.43;;
4754;SDS011;2391;47.212;7.542;2023-05-08T12:01:01;6.10;;;1.67;;
4754;SDS011;2391;47.212;7.542;2023-05-08T12:03:27;1.20;;;1.20;;
4754;SDS011;2391;47.212;7.542;2023-05-08T12:05:56;3.37;;;1.10;;
4754;SDS011;2391;47.212;7.542;2023-05-08T12:08:27;1.40;;;1.20;;
4754;SDS011;2391;47.212;7.542;2023-05-08T12:10:56;1.13;;;1.03;;
4754;SDS011;2391;47.212;7.542;2023-05-08T12:13:23;4.73;;;1.10;;
4754;SDS011;2391;47.212;7.542;2023-05-08T12:15:52;0.90;;;0.90;;
4754;SDS011;2391;47.212;7.542;2023-05-08T12:18:20;3.23;;;1.20;;
4754;SDS011;2391;47.212;7.542;2023-05-08T12:20:55;1.00;;;1.00;;
4754;SDS011;2391;47.212;7.542;2023-05-08T12:23:18;1.27;;;1.00;;
4754;SDS011;2391;47.212;7.542;2023-05-08T12:25:44;2.20;;;1.07;;
4754;SDS011;2391;47.212;7.542;2023-05-08T12:28:10;1.20;;;1.10;;
4754;SDS011;2391;47.212;7.542;2023-05-08T12:30:36;3.27;;;0.90;;
4754;SDS011;2391;47.212;7.542;2023-05-08T12:33:03;0.80;;;0.73;;
4754;SDS011;2391;47.212;7.542;2023-05-08T12:35:30;1.07;;;0.70;;
4754;SDS011;2391;47.212;7.542;2023-05-08T12:38:05;0.60;;;0.60;;
4754;SDS011;2391;47.212;7.542;2023-05-08T12:40:29;0.70;;;0.70;;
4754;SDS011;2391;47.212;7.542;2023-05-08T12:42:59;0.70;;;0.70;;
4754;SDS011;2391;47.212;7.542;2023-05-08T12:45:27;0.83;;;0.83;;
4754;SDS011;2391;47.212;7.542;2023-05-08T12:47:59;0.87;;;0.87;;
4754;SDS011;2391;47.212;7.542;2023-05-08T12:50:26;0.80;;;0.80;;
4754;SDS011;2391;47.212;7.542;2023-05-08T12:53:00;0.93;;;0.80;;
4754;SDS011;2391;47.212;7.542;2023-05-08T12:55:30;0.80;;;0.80;;
4754;SDS011;2391;47.212;7.542;2023-05-08T12:58:07;0.80;;;0.80;;
4754;SDS011;2391;47.212;7.542;2023-05-08T13:00:37;1.47;;;0.80;;
4754;SDS011;2391;47.212;7.542;2023-05-08T13:03:12;0.90;;;0.90;;
4754;SDS011;2391;47.212;7.542;2023-05-08T13:05:41;1.13;;;0.90;;
4754;SDS011;2391;47.212;7.542;2023-05-08T13:08:09;2.30;;;1.07;;
4754;SDS011;2391;47.212;7.542;2023-05-08T13:13:14;2.00;;;0.90;;
4754;SDS011;2391;47.212;7.542;2023-05-08T13:15:41;1.03;;;0.70;;
4754;SDS011;2391;47.212;7.542;2023-05-08T13:18:07;1.07;;;0.90;;
4754;SDS011;2391;47.212;7.542;2023-05-08T13:20:33;0.90;;;0.90;;
4754;SDS011;2391;47.212;7.542;2023-05-08T13:22:59;0.80;;;0.80;;
4754;SDS011;2391;47.212;7.542;2023-05-08T13:25:25;1.10;;;1.00;;
4754;SDS011;2391;47.212;7.542;2023-05-08T13:27:51;2.70;;;0.80;;
4754;SDS011;2391;47.212;7.542;2023-05-08T13:30:17;2.20;;;1.00;;
4754;SDS011;2391;47.212;7.542;2023-05-08T13:32:43;0.97;;;0.70;;
4754;SDS011;2391;47.212;7.542;2023-05-08T13:35:09;7.80;;;0.70;;
4754;SDS011;2391;47.212;7.542;2023-05-08T13:37:34;1.47;;;0.60;;
4754;SDS011;2391;47.212;7.542;2023-05-08T13:40:00;0.80;;;0.80;;
4754;SDS011;2391;47.212;7.542;2023-05-08T13:42:26;1.13;;;0.90;;
4754;SDS011;2391;47.212;7.542;2023-05-08T13:44:51;3.10;;;0.70;;
4754;SDS011;2391;47.212;7.542;2023-05-08T13:47:17;1.30;;;1.20;;
4754;SDS011;2391;47.212;7.542;2023-05-08T13:49:43;0.70;;;0.70;;
4754;SDS011;2391;47.212;7.542;2023-05-08T13:54:39;5.70;;;0.80;;
4754;SDS011;2391;47.212;7.542;2023-05-08T13:57:05;3.07;;;0.80;;
4754;SDS011;2391;47.212;7.542;2023-05-08T13:59:32;0.60;;;0.60;;
4754;SDS011;2391;47.212;7.542;2023-05-08T14:01:58;1.90;;;0.77;;
4754;SDS011;2391;47.212;7.542;2023-05-08T14:04:24;0.90;;;0.57;;
4754;SDS011;2391;47.212;7.542;2023-05-08T14:06:50;0.60;;;0.60;;
4754;SDS011;2391;47.212;7.542;2023-05-08T14:09:16;2.70;;;0.60;;
4754;SDS011;2391;47.212;7.542;2023-05-08T14:11:42;1.80;;;0.67;;
4754;SDS011;2391;47.212;7.542;2023-05-08T14:14:07;0.70;;;0.70;;
4754;SDS011;2391;47.212;7.542;2023-05-08T14:16:33;0.60;;;0.60;;
4754;SDS011;2391;47.212;7.542;2023-05-08T14:18:59;2.00;;;0.53;;
4754;SDS011;2391;47.212;7.542;2023-05-08T14:21:25;0.73;;;0.60;;
4754;SDS011;2391;47.212;7.542;2023-05-08T14:23:52;0.73;;;0.53;;
4754;SDS011;2391;47.212;7.542;2023-05-08T14:26:18;3.30;;;0.70;;
4754;SDS011;2391;47.212;7.542;2023-05-08T14:28:44;1.17;;;0.60;;
4754;SDS011;2391;47.212;7.542;2023-05-08T14:31:10;2.00;;;0.80;;
4754;SDS011;2391;47.212;7.542;2023-05-08T14:33:35;2.07;;;0.63;;
4754;SDS011;2391;47.212;7.542;2023-05-08T14:36:01;0.70;;;0.70;;
4754;SDS011;2391;47.212;7.542;2023-05-08T14:38:27;7.47;;;0.70;;
4754;SDS011;2391;47.212;7.542;2023-05-08T14:40:53;1.13;;;0.80;;
4754;SDS011;2391;47.212;7.542;2023-05-08T14:43:22;1.17;;;0.70;;
4754;SDS011;2391;47.212;7.542;2023-05-08T14:45:46;3.10;;;0.60;;
4754;SDS011;2391;47.212;7.542;2023-05-08T14:48:12;4.83;;;0.73;;
4754;SDS011;2391;47.212;7.542;2023-05-08T14:50:38;6.10;;;0.70;;
4754;SDS011;2391;47.212;7.542;2023-05-08T14:53:04;1.47;;;0.67;;
4754;SDS011;2391;47.212;7.542;2023-05-08T14:55:30;0.70;;;0.70;;
4754;SDS011;2391;47.212;7.542;2023-05-08T14:57:55;13.33;;;0.80;;
4754;SDS011;2391;47.212;7.542;2023-05-08T15:00:22;2.90;;;0.87;;
4754;SDS011;2391;47.212;7.542;2023-05-08T15:02:47;3.33;;;0.87;;
4754;SDS011;2391;47.212;7.542;2023-05-08T15:05:13;1.77;;;0.70;;
4754;SDS011;2391;47.212;7.542;2023-05-08T15:07:39;2.53;;;0.80;;
4754;SDS011;2391;47.212;7.542;2023-05-08T15:10:05;1.07;;;0.90;;
4754;SDS011;2391;47.212;7.542;2023-05-08T15:12:32;2.70;;;1.00;;
4754;SDS011;2391;47.212;7.542;2023-05-08T15:14:58;0.83;;;0.80;;
4754;SDS011;2391;47.212;7.542;2023-05-08T15:17:27;0.80;;;0.70;;
4754;SDS011;2391;47.212;7.542;2023-05-08T15:19:52;1.17;;;0.90;;
4754;SDS011;2391;47.212;7.542;2023-05-08T15:22:20;2.90;;;0.90;;
4754;SDS011;2391;47.212;7.542;2023-05-08T15:24:47;1.13;;;0.80;;
4754;SDS011;2391;47.212;7.542;2023-05-08T15:27:13;1.63;;;0.93;;
4754;SDS011;2391;47.212;7.542;2023-05-08T15:29:41;2.30;;;0.70;;
4754;SDS011;2391;47.212;7.542;2023-05-08T15:32:06;4.63;;;0.90;;
4754;SDS011;2391;47.212;7.542;2023-05-08T15:34:32;0.80;;;0.77;;
4754;SDS011;2391;47.212;7.542;2023-05-08T15:36:58;1.13;;;0.70;;
4754;SDS011;2391;47.212;7.542;2023-05-08T15:39:24;0.80;;;0.80;;
4754;SDS011;2391;47.212;7.542;2023-05-08T15:41:49;1.60;;;0.70;;
4754;SDS011;2391;47.212;7.542;2023-05-08T15:44:17;1.80;;;0.80;;
4754;SDS011;2391;47.212;7.542;2023-05-08T15:46:43;1.27;;;0.83;;
4754;SDS011;2391;47.212;7.542;2023-05-08T15:49:08;0.77;;;0.77;;
4754;SDS011;2391;47.212;7.542;2023-05-08T15:51:34;1.27;;;0.80;;
4754;SDS011;2391;47.212;7.542;2023-05-08T15:54:00;3.20;;;0.80;;
4754;SDS011;2391;47.212;7.542;2023-05-08T15:56:26;0.80;;;0.80;;
4754;SDS011;2391;47.212;7.542;2023-05-08T15:58:52;1.33;;;0.83;;
4754;SDS011;2391;47.212;7.542;2023-05-08T16:01:18;0.80;;;0.80;;
4754;SDS011;2391;47.212;7.542;2023-05-08T16:03:45;1.27;;;0.80;;